createdAt,value
2018-11-04T00:02:20.031Z,28.70
2018-11-04T00:05:14.104Z,31.47
2018-11-04T00:08:08.301Z,29.73
2018-11-04T00:11:02.263Z,33.03
2018-11-04T00:13:58.200Z,29.70
2018-11-04T00:16:55.458Z,29.80
2018-11-04T00:19:49.958Z,28.57
2018-11-04T00:22:44.228Z,28.07
2018-11-04T00:25:38.601Z,28.77
2018-11-04T00:28:32.685Z,29.30
2018-11-04T00:31:34.142Z,28.83
2018-11-04T00:34:34.015Z,30.30
2018-11-04T00:37:30.680Z,28.50
2018-11-04T00:40:24.310Z,27.55
2018-11-04T00:43:20.210Z,27.65
2018-11-04T00:46:14.498Z,28.17
2018-11-04T00:49:08.582Z,27.35
2018-11-04T00:52:03.568Z,29.30
2018-11-04T00:55:02.999Z,29.67
2018-11-04T00:57:57.868Z,27.77
2018-11-04T01:00:53.492Z,27.98
2018-11-04T01:03:49.455Z,29.50
2018-11-04T01:06:43.697Z,33.63
2018-11-04T01:09:37.620Z,30.62
2018-11-04T01:12:31.654Z,28.85
2018-11-04T01:15:25.801Z,27.67
2018-11-04T01:18:20.114Z,28.53
2018-11-04T01:21:14.267Z,28.60
2018-11-04T01:24:08.006Z,30.40
2018-11-04T01:27:01.410Z,31.83
2018-11-04T01:29:55.518Z,43.90
2018-11-04T01:32:49.732Z,48.77
2018-11-04T01:35:46.123Z,37.73
2018-11-04T01:38:41.145Z,44.13
2018-11-04T01:41:40.692Z,48.57
2018-11-04T01:44:30.969Z,55.48
2018-11-04T01:47:25.025Z,48.57
2018-11-04T01:50:19.410Z,46.48
2018-11-04T01:53:20.205Z,39.58
2018-11-04T01:56:11.676Z,39.92
2018-11-04T01:59:06.020Z,46.25
2018-11-04T02:01:59.939Z,41.87
2018-11-04T02:04:56.433Z,39.25
2018-11-04T02:07:50.280Z,37.60
2018-11-04T02:10:46.539Z,36.67
2018-11-04T02:13:46.317Z,35.10
2018-11-04T02:16:40.594Z,36.10
2018-11-04T02:19:35.493Z,38.87
2018-11-04T02:22:29.359Z,37.38
2018-11-04T02:25:25.081Z,31.90
2018-11-04T02:28:18.889Z,37.30
2018-11-04T02:31:23.480Z,38.73
2018-11-04T02:34:19.228Z,40.50
2018-11-04T02:37:13.595Z,41.40
2018-11-04T02:40:07.665Z,42.65
2018-11-04T02:43:01.672Z,41.10
2018-11-04T02:45:55.466Z,47.75
2018-11-04T02:48:50.951Z,42.10
2018-11-04T02:51:44.707Z,41.40
2018-11-04T02:54:39.928Z,38.07
2018-11-04T02:57:36.260Z,34.10
2018-11-04T03:00:31.885Z,33.78
2018-11-04T03:03:26.215Z,33.53
2018-11-04T03:06:21.374Z,34.77
2018-11-04T03:09:16.295Z,32.98
2018-11-04T03:12:11.174Z,30.80
2018-11-04T03:15:05.050Z,31.87
2018-11-04T03:17:59.522Z,32.73
2018-11-04T03:20:56.075Z,32.60
2018-11-04T03:23:51.801Z,33.58
2018-11-04T03:26:54.169Z,32.20
2018-11-04T03:29:49.276Z,31.43
2018-11-04T03:32:43.361Z,30.40
2018-11-04T03:35:38.463Z,31.57
2018-11-04T03:38:32.243Z,31.33
2018-11-04T03:41:26.315Z,30.90
2018-11-04T03:44:22.857Z,30.27
2018-11-04T03:47:17.248Z,30.50
2018-11-04T03:50:17.190Z,29.30
2018-11-04T03:53:10.948Z,30.43
2018-11-04T03:56:05.010Z,31.30
2018-11-04T03:59:00.833Z,29.80
2018-11-04T04:01:55.127Z,29.92
2018-11-04T04:04:51.158Z,28.62
2018-11-04T04:07:44.896Z,28.98
2018-11-04T04:10:41.254Z,28.75
2018-11-04T04:13:35.744Z,28.05
2018-11-04T04:16:30.759Z,27.07
2018-11-04T04:19:24.660Z,29.02
2018-11-04T04:22:21.279Z,28.38
2018-11-04T04:25:16.270Z,26.67
2018-11-04T04:28:10.641Z,26.47
2018-11-04T04:31:05.268Z,25.82
2018-11-04T04:33:59.808Z,26.57
2018-11-04T04:36:53.805Z,27.85
2018-11-04T04:39:48.313Z,26.80
2018-11-04T04:42:42.383Z,24.63
2018-11-04T04:45:36.794Z,25.17
2018-11-04T04:48:33.553Z,25.23
2018-11-04T04:51:25.203Z,24.65
2018-11-04T04:54:20.670Z,24.27
2018-11-04T04:57:15.186Z,24.50
2018-11-04T05:00:09.717Z,23.83
2018-11-04T05:03:04.040Z,23.60
2018-11-04T05:05:58.341Z,23.85
2018-11-04T05:08:53.412Z,24.00
2018-11-04T05:11:55.068Z,23.18
2018-11-04T05:14:58.219Z,22.62
2018-11-04T05:17:45.542Z,21.82
2018-11-04T05:20:40.510Z,22.85
2018-11-04T05:23:34.395Z,22.40
2018-11-04T05:26:30.931Z,22.35
2018-11-04T05:29:26.694Z,22.15
2018-11-04T05:32:28.938Z,21.95
2018-11-04T05:35:21.190Z,22.60
2018-11-04T05:38:23.518Z,22.05
2018-11-04T05:41:30.012Z,22.55
2018-11-04T05:44:41.574Z,20.82
2018-11-04T05:47:52.398Z,21.50
2018-11-04T05:51:17.224Z,22.10
2018-11-04T05:53:52.744Z,21.13
2018-11-04T05:56:58.419Z,20.48
2018-11-04T05:59:54.615Z,20.85
2018-11-04T06:02:50.888Z,20.62
2018-11-04T06:06:03.230Z,20.55
2018-11-04T06:08:58.044Z,20.20
2018-11-04T06:12:10.169Z,19.90
2018-11-04T06:15:05.713Z,19.73
2018-11-04T06:18:11.164Z,19.57
2018-11-04T06:21:06.345Z,18.52
2018-11-04T06:24:01.427Z,18.77
2018-11-04T06:27:08.154Z,19.30
2018-11-04T06:30:28.113Z,18.50
2018-11-04T06:33:38.607Z,18.92
2018-11-04T06:36:34.046Z,17.30
2018-11-04T06:39:35.228Z,18.60
2018-11-04T06:42:26.331Z,17.15
2018-11-04T06:45:25.291Z,17.98
2018-11-04T06:48:15.189Z,18.55
2018-11-04T06:51:11.467Z,19.42
2018-11-04T06:54:23.435Z,18.05
2018-11-04T06:57:30.642Z,18.80
2018-11-04T07:00:42.058Z,19.40
2018-11-04T07:03:29.870Z,19.12
2018-11-04T07:06:26.592Z,19.00
2018-11-04T07:09:20.878Z,19.15
2018-11-04T07:12:15.204Z,18.67
2018-11-04T07:15:12.424Z,17.75
2018-11-04T07:18:07.940Z,18.67
2018-11-04T07:21:04.682Z,18.40
2018-11-04T07:24:03.271Z,19.27
2018-11-04T07:26:59.131Z,17.85
2018-11-04T07:29:53.492Z,18.32
2018-11-04T07:32:47.667Z,18.65
2018-11-04T07:35:43.075Z,19.20
2018-11-04T07:38:37.473Z,18.27
2018-11-04T07:41:31.566Z,19.25
2018-11-04T07:44:25.598Z,19.00
2018-11-04T07:47:19.814Z,17.65
2018-11-04T07:50:16.944Z,18.23
2018-11-04T07:53:11.060Z,17.85
2018-11-04T07:56:05.230Z,19.05
2018-11-04T07:59:03.425Z,18.32
2018-11-04T08:02:01.596Z,19.52
2018-11-04T08:04:57.824Z,19.05
2018-11-04T08:07:52.016Z,18.65
2018-11-04T08:10:46.075Z,18.82
2018-11-04T08:13:40.759Z,18.63
2018-11-04T08:16:35.694Z,18.35
2018-11-04T08:19:29.675Z,19.67
2018-11-04T08:22:26.913Z,19.23
2018-11-04T08:25:22.845Z,18.15
2018-11-04T08:28:17.533Z,18.30
2018-11-04T08:31:12.021Z,19.00
2018-11-04T08:34:06.998Z,19.55
2018-11-04T08:37:01.320Z,18.85
2018-11-04T08:39:56.446Z,19.62
2018-11-04T08:42:51.201Z,18.42
2018-11-04T08:45:47.999Z,19.05
2018-11-04T08:48:42.493Z,18.40
2018-11-04T08:51:42.650Z,19.80
2018-11-04T08:54:39.629Z,19.07
2018-11-04T08:57:33.897Z,20.55
2018-11-04T09:00:28.350Z,19.40
2018-11-04T09:03:24.339Z,19.45
2018-11-04T09:06:19.438Z,20.23
2018-11-04T09:09:16.567Z,19.23
2018-11-04T09:12:11.159Z,19.40
2018-11-04T09:15:05.303Z,20.73
2018-11-04T09:18:02.405Z,20.88
2018-11-04T09:20:56.822Z,20.25
2018-11-04T09:23:51.400Z,21.00
2018-11-04T09:26:49.755Z,19.23
2018-11-04T09:29:40.479Z,21.20
2018-11-04T09:32:36.718Z,21.37
2018-11-04T09:35:31.943Z,20.88
2018-11-04T09:38:26.309Z,20.97
2018-11-04T09:41:21.179Z,21.27
2018-11-04T09:44:19.904Z,21.65
2018-11-04T09:47:14.369Z,21.35
2018-11-04T09:50:09.325Z,21.90
2018-11-04T09:53:03.733Z,22.00
2018-11-04T09:55:58.765Z,21.60
2018-11-04T09:58:53.667Z,20.97
2018-11-04T10:01:48.355Z,21.43
2018-11-04T10:04:44.183Z,21.45
2018-11-04T10:07:38.368Z,21.40
2018-11-04T10:10:34.906Z,20.72
2018-11-04T10:13:29.693Z,22.82
2018-11-04T10:16:23.910Z,21.30
2018-11-04T10:19:18.828Z,24.20
2018-11-04T10:22:12.693Z,22.05
2018-11-04T10:25:06.735Z,22.42
2018-11-04T10:28:02.896Z,21.87
2018-11-04T10:30:56.842Z,22.30
2018-11-04T10:33:50.896Z,21.17
2018-11-04T10:36:46.960Z,20.65
2018-11-04T10:39:40.939Z,22.60
2018-11-04T10:42:36.654Z,21.95
2018-11-04T10:45:31.052Z,22.22
2018-11-04T10:48:24.721Z,22.07
2018-11-04T10:51:18.595Z,21.42
2018-11-04T10:54:13.084Z,21.68
2018-11-04T10:57:07.287Z,22.57
2018-11-04T11:00:01.356Z,22.10
2018-11-04T11:02:55.541Z,21.82
2018-11-04T11:05:49.783Z,21.23
2018-11-04T11:08:46.669Z,22.37
2018-11-04T11:11:42.794Z,21.80
2018-11-04T11:14:40.188Z,22.90
2018-11-04T11:17:31.767Z,21.37
2018-11-04T11:20:26.262Z,22.67
2018-11-04T11:23:20.903Z,22.30
2018-11-04T11:26:14.670Z,22.32
2018-11-04T11:29:12.295Z,21.73
2018-11-04T11:32:06.789Z,22.95
2018-11-04T11:35:01.580Z,22.20
2018-11-04T11:37:56.624Z,22.40
2018-11-04T11:40:52.108Z,22.20
2018-11-04T11:43:48.298Z,22.65
2018-11-04T11:46:43.157Z,22.42
2018-11-04T11:49:37.568Z,23.90
2018-11-04T11:52:38.521Z,22.48
2018-11-04T11:55:32.649Z,22.85
2018-11-04T11:58:29.995Z,23.22
2018-11-04T12:01:24.332Z,23.27
2018-11-04T12:04:19.262Z,23.50
2018-11-04T12:07:16.708Z,21.80
2018-11-04T12:10:14.502Z,23.75
2018-11-04T12:13:08.714Z,23.12
2018-11-04T12:16:03.910Z,23.25
2018-11-04T12:18:58.214Z,24.20
2018-11-04T12:21:55.698Z,23.67
2018-11-04T12:24:50.248Z,22.87
2018-11-04T12:27:45.043Z,23.87
2018-11-04T12:30:42.606Z,23.63
2018-11-04T12:33:37.194Z,21.73
2018-11-04T12:36:33.235Z,22.40
2018-11-04T12:39:28.847Z,22.60
2018-11-04T12:42:25.793Z,23.50
2018-11-04T12:45:23.089Z,24.40
2018-11-04T12:48:17.121Z,22.42
2018-11-04T12:51:11.320Z,23.67
2018-11-04T12:54:05.931Z,23.50
2018-11-04T12:57:00.318Z,23.92
2018-11-04T12:59:54.499Z,21.93
2018-11-04T13:02:48.594Z,23.73
2018-11-04T13:05:45.412Z,23.30
2018-11-04T13:08:39.595Z,24.32
2018-11-04T13:11:35.178Z,24.00
2018-11-04T13:14:30.919Z,23.45
2018-11-04T13:17:25.193Z,25.60
2018-11-04T13:20:19.503Z,23.98
2018-11-04T13:23:13.440Z,26.73
2018-11-04T13:26:07.052Z,24.32
2018-11-04T13:29:01.105Z,25.62
2018-11-04T13:31:55.113Z,25.77
2018-11-04T13:34:49.591Z,24.63
2018-11-04T13:37:43.787Z,25.10
2018-11-04T13:40:37.965Z,24.15
2018-11-04T13:43:31.941Z,23.73
2018-11-04T13:46:29.299Z,25.05
2018-11-04T13:49:23.396Z,25.10
2018-11-04T13:52:20.048Z,24.80
2018-11-04T13:55:14.202Z,26.85
2018-11-04T13:58:10.752Z,25.70
2018-11-04T14:01:05.213Z,25.37
2018-11-04T14:03:59.626Z,25.57
2018-11-04T14:06:53.916Z,26.12
2018-11-04T14:09:48.092Z,24.70
2018-11-04T14:12:42.802Z,26.23
2018-11-04T14:15:37.699Z,23.42
2018-11-04T14:18:33.209Z,27.02
2018-11-04T14:21:27.698Z,25.88
2018-11-04T14:24:24.541Z,25.63
2018-11-04T14:27:21.782Z,26.23
2018-11-04T14:30:17.647Z,26.15
2018-11-04T14:33:15.079Z,26.25
2018-11-04T14:36:11.525Z,25.67
2018-11-04T14:39:05.596Z,26.48
2018-11-04T14:41:59.977Z,27.13
2018-11-04T14:44:55.509Z,25.82
2018-11-04T14:47:50.502Z,27.30
2018-11-04T14:50:44.994Z,26.63
2018-11-04T14:53:39.380Z,26.90
2018-11-04T14:56:35.810Z,26.30
2018-11-04T14:59:30.316Z,26.60
2018-11-04T15:02:32.318Z,26.35
2018-11-04T15:05:25.312Z,25.80
2018-11-04T15:08:19.354Z,25.60
2018-11-04T15:11:16.457Z,26.93
2018-11-04T15:14:13.011Z,26.13
2018-11-04T15:17:06.643Z,26.77
2018-11-04T15:20:00.549Z,25.92
2018-11-04T15:22:54.919Z,25.57
2018-11-04T15:25:49.014Z,25.80
2018-11-04T15:28:42.785Z,25.75
2018-11-04T15:31:37.179Z,24.60
2018-11-04T15:34:35.314Z,25.97
2018-11-04T15:37:25.753Z,27.50
2018-11-04T15:40:20.158Z,27.27
2018-11-04T15:43:15.181Z,26.33
2018-11-04T15:46:12.189Z,26.23
2018-11-04T15:49:09.630Z,27.35
2018-11-04T15:52:03.438Z,26.93
2018-11-04T15:54:56.988Z,28.30
2018-11-04T15:57:50.730Z,27.58
2018-11-04T16:00:44.552Z,27.37
2018-11-04T16:03:38.513Z,25.32
2018-11-04T16:06:34.238Z,26.05
2018-11-04T16:09:29.329Z,27.42
2018-11-04T16:12:23.295Z,28.20
2018-11-04T16:15:18.679Z,27.67
2018-11-04T16:18:13.325Z,26.57
2018-11-04T16:21:10.116Z,26.60
2018-11-04T16:24:04.299Z,27.82
2018-11-04T16:26:58.751Z,27.25
2018-11-04T16:29:52.988Z,27.62
2018-11-04T16:32:50.708Z,26.60
2018-11-04T16:35:44.637Z,26.48
2018-11-04T16:38:38.661Z,26.77
2018-11-04T16:41:36.661Z,26.52
2018-11-04T16:44:31.253Z,27.60
2018-11-04T16:47:25.328Z,27.62
2018-11-04T16:50:19.343Z,28.35
2018-11-04T16:53:16.331Z,26.73
2018-11-04T16:56:10.398Z,27.67
2018-11-04T16:59:04.598Z,28.67
2018-11-04T17:01:58.380Z,27.53
2018-11-04T17:04:52.676Z,29.42
2018-11-04T17:07:46.943Z,27.15
2018-11-04T17:10:40.660Z,27.32
2018-11-04T17:13:34.903Z,27.80
2018-11-04T17:16:39.733Z,29.00
2018-11-04T17:19:35.857Z,28.80
2018-11-04T17:22:30.928Z,26.65
2018-11-04T17:25:24.549Z,28.63
2018-11-04T17:28:18.742Z,28.27
2018-11-04T17:31:13.001Z,29.00
2018-11-04T17:34:07.188Z,35.45
2018-11-04T17:37:01.147Z,28.87
2018-11-04T17:39:58.629Z,28.00
2018-11-04T17:42:54.107Z,31.48
2018-11-04T17:45:48.336Z,31.75
2018-11-04T17:48:46.198Z,29.48
2018-11-04T17:51:39.946Z,33.20
2018-11-04T17:54:34.505Z,28.77
2018-11-04T17:57:28.763Z,28.63
2018-11-04T18:00:22.603Z,30.37
2018-11-04T18:03:16.821Z,33.13
2018-11-04T18:06:18.411Z,29.50
2018-11-04T18:09:16.044Z,29.48
2018-11-04T18:12:13.496Z,30.77
2018-11-04T18:15:08.497Z,29.95
2018-11-04T18:18:07.905Z,32.93
2018-11-04T18:21:02.081Z,34.90
2018-11-04T18:23:55.964Z,35.30
2018-11-04T18:26:49.953Z,34.08
2018-11-04T18:29:48.258Z,31.20
2018-11-04T18:32:48.037Z,31.48
2018-11-04T18:35:42.115Z,30.87
2018-11-04T18:38:36.039Z,32.20
2018-11-04T18:41:33.252Z,30.05
2018-11-04T18:44:27.177Z,31.55
2018-11-04T18:47:22.910Z,31.87
2018-11-04T18:50:17.371Z,30.72
2018-11-04T18:53:11.207Z,30.80
2018-11-04T18:56:05.165Z,31.45
2018-11-04T18:59:00.312Z,30.30
2018-11-04T19:01:54.235Z,31.93
2018-11-04T19:04:51.016Z,30.05
2018-11-04T19:07:44.898Z,29.00
2018-11-04T19:10:40.812Z,29.73
2018-11-04T19:13:35.508Z,32.63
2018-11-04T19:16:29.091Z,30.90
2018-11-04T19:19:26.242Z,30.97
2018-11-04T19:22:20.116Z,32.50
2018-11-04T19:25:15.631Z,34.17
2018-11-04T19:28:13.394Z,33.18
2018-11-04T19:31:07.399Z,32.17
2018-11-04T19:34:01.741Z,33.30
2018-11-04T19:36:56.155Z,34.67
2018-11-04T19:39:52.651Z,33.53
2018-11-04T19:42:46.685Z,37.15
2018-11-04T19:45:42.175Z,36.40
2018-11-04T19:48:36.581Z,36.85
2018-11-04T19:51:32.916Z,36.50
2018-11-04T19:54:26.490Z,35.83
2018-11-04T19:57:20.664Z,39.53
2018-11-04T20:00:18.321Z,36.73
2018-11-04T20:03:14.149Z,35.13
2018-11-04T20:06:10.192Z,38.17
2018-11-04T20:09:19.068Z,37.50
2018-11-04T20:12:29.869Z,39.67
2018-11-04T20:15:23.261Z,36.88
2018-11-04T20:18:34.009Z,36.70
2018-11-04T20:21:30.755Z,36.20
2018-11-04T20:24:41.622Z,38.67
2018-11-04T20:27:36.837Z,37.80
2018-11-04T20:30:31.021Z,39.83
2018-11-04T20:33:24.802Z,38.43
2018-11-04T20:36:18.626Z,39.93
2018-11-04T20:39:34.997Z,37.43
2018-11-04T20:42:27.524Z,41.00
2018-11-04T20:45:21.888Z,37.53
2018-11-04T20:48:32.373Z,37.17
2018-11-04T20:51:26.673Z,36.10
2018-11-04T20:54:20.440Z,37.33
2018-11-04T20:57:30.613Z,36.17
2018-11-04T21:00:25.089Z,35.40
2018-11-04T21:03:19.001Z,34.23
2018-11-04T21:06:13.298Z,34.60
2018-11-04T21:09:11.116Z,32.63
2018-11-04T21:12:04.965Z,34.40
2018-11-04T21:14:58.661Z,35.13
2018-11-04T21:17:52.944Z,34.73
2018-11-04T21:20:47.231Z,35.40
2018-11-04T21:23:41.007Z,34.73
2018-11-04T21:26:38.055Z,36.40
2018-11-04T21:29:36.666Z,37.35
2018-11-04T21:32:30.296Z,35.73
2018-11-04T21:35:25.936Z,33.43
2018-11-04T21:38:19.906Z,32.60
2018-11-04T21:41:16.018Z,34.10
2018-11-04T21:44:09.679Z,34.87
2018-11-04T21:47:03.519Z,34.17
2018-11-04T21:49:57.667Z,37.70
2018-11-04T21:52:51.760Z,40.20
2018-11-04T21:55:46.436Z,34.40
2018-11-04T21:58:41.855Z,33.50
2018-11-04T22:01:35.696Z,34.87
2018-11-04T22:04:29.516Z,35.30
2018-11-04T22:07:23.271Z,33.38
2018-11-04T22:10:18.756Z,35.17
2018-11-04T22:13:15.878Z,34.20
2018-11-04T22:16:09.518Z,34.18
2018-11-04T22:19:03.888Z,33.63
2018-11-04T22:21:58.088Z,32.17
2018-11-04T22:24:52.476Z,32.70
2018-11-04T22:27:46.379Z,31.77
2018-11-04T22:30:40.980Z,32.50
2018-11-04T22:33:34.742Z,32.20
2018-11-04T22:36:28.912Z,35.48
2018-11-04T22:39:22.888Z,32.27
2018-11-04T22:42:20.730Z,35.60
2018-11-04T22:45:15.204Z,31.27
2018-11-04T22:48:10.446Z,33.97
2018-11-04T22:51:08.833Z,34.27
2018-11-04T22:54:02.814Z,33.60
2018-11-04T22:56:56.986Z,31.00
2018-11-04T23:00:10.443Z,33.20
2018-11-04T23:03:04.309Z,32.00
2018-11-04T23:05:59.711Z,30.43
2018-11-04T23:08:53.726Z,31.55
2018-11-04T23:11:47.993Z,32.40
2018-11-04T23:14:42.270Z,31.10
2018-11-04T23:17:36.338Z,33.37
2018-11-04T23:20:30.423Z,34.45
2018-11-04T23:23:24.266Z,33.23
2018-11-04T23:26:18.181Z,35.97
2018-11-04T23:29:16.150Z,31.87
2018-11-04T23:32:10.234Z,32.63
2018-11-04T23:35:04.519Z,35.27
2018-11-04T23:37:58.917Z,34.92
2018-11-04T23:40:52.581Z,37.90
2018-11-04T23:43:46.683Z,33.17
2018-11-04T23:46:40.780Z,42.73
2018-11-04T23:49:34.926Z,42.27
2018-11-04T23:52:31.670Z,42.30
2018-11-04T23:55:26.344Z,39.00
2018-11-04T23:58:20.239Z,39.92
